Terminal Aerodrome Forecast
Issued by NWS Charleston, WV

Current Version | Previous Version | Graphics & Text | Print | Product List | Glossary On
Versions: 1 2 3 4 5 6 7 8 9 10 11 12 13 14 15 16 17 18 19 20 21 22 23 24 25
000
FTUS41 KRLX 212300
TAFBKW
TAF
KBKW 212328Z 2200/2224 VRB03KT P6SM BKN070
     FM220100 VRB03KT P6SM BKN040
     FM221100 VRB03KT 6SM BR BKN070
     FM221700 29007KT P6SM BKN040
     FM221800 30007KT P6SM BKN025
     FM222000 30007KT 6SM BR BKN035=

USA.gov is the U.S. government's official web portal to all federal, state and local government web resources and services.